sensor_id;sensor_type;location;lat;lon;timestamp;temperature;humidity
64869;DHT22;51349;52.424;10.840;2023-02-12T00:04:29;7.60;99.90
64869;DHT22;51349;52.424;10.840;2023-02-12T00:09:29;7.60;99.90
64869;DHT22;51349;52.424;10.840;2023-02-12T00:14:30;7.60;99.90
64869;DHT22;51349;52.424;10.840;2023-02-12T00:19:31;7.70;99.90
64869;DHT22;51349;52.424;10.840;2023-02-12T00:24:31;7.70;99.90
64869;DHT22;51349;52.424;10.840;2023-02-12T00:29:32;7.70;99.90
64869;DHT22;51349;52.424;10.840;2023-02-12T00:34:33;7.60;99.90
64869;DHT22;51349;52.424;10.840;2023-02-12T00:39:33;7.70;99.90
64869;DHT22;51349;52.424;10.840;2023-02-12T00:44:37;7.60;99.90
64869;DHT22;51349;52.424;10.840;2023-02-12T00:49:37;7.60;99.90
64869;DHT22;51349;52.424;10.840;2023-02-12T00:54:38;7.70;99.90
64869;DHT22;51349;52.424;10.840;2023-02-12T00:59:39;7.70;99.90
64869;DHT22;51349;52.424;10.840;2023-02-12T01:04:41;7.70;99.90
64869;DHT22;51349;52.424;10.840;2023-02-12T01:09:42;7.70;99.90
64869;DHT22;51349;52.424;10.840;2023-02-12T01:14:43;7.70;99.90
64869;DHT22;51349;52.424;10.840;2023-02-12T01:19:43;7.60;99.90
64869;DHT22;51349;52.424;10.840;2023-02-12T01:24:44;7.60;99.90
64869;DHT22;51349;52.424;10.840;2023-02-12T01:29:45;7.60;99.90
64869;DHT22;51349;52.424;10.840;2023-02-12T01:34:45;7.60;99.90
64869;DHT22;51349;52.424;10.840;2023-02-12T01:39:46;7.50;99.90
64869;DHT22;51349;52.424;10.840;2023-02-12T01:50:17;7.50;99.90
64869;DHT22;51349;52.424;10.840;2023-02-12T01:55:18;7.50;99.90
64869;DHT22;51349;52.424;10.840;2023-02-12T02:00:22;7.50;99.90
64869;DHT22;51349;52.424;10.840;2023-02-12T02:05:32;7.50;99.90
64869;DHT22;51349;52.424;10.840;2023-02-12T02:10:34;7.50;99.90
64869;DHT22;51349;52.424;10.840;2023-02-12T02:15:35;7.50;99.90
64869;DHT22;51349;52.424;10.840;2023-02-12T02:31:58;7.50;99.90
64869;DHT22;51349;52.424;10.840;2023-02-12T02:42:33;7.50;99.90
64869;DHT22;51349;52.424;10.840;2023-02-12T02:47:43;7.50;99.90
64869;DHT22;51349;52.424;10.840;2023-02-12T02:52:49;7.50;99.90
64869;DHT22;51349;52.424;10.840;2023-02-12T02:58:00;7.50;99.90
64869;DHT22;51349;52.424;10.840;2023-02-12T03:03:08;7.50;99.90
64869;DHT22;51349;52.424;10.840;2023-02-12T03:08:19;7.50;99.90
64869;DHT22;51349;52.424;10.840;2023-02-12T03:13:36;7.50;99.90
64869;DHT22;51349;52.424;10.840;2023-02-12T03:18:42;7.50;99.90
64869;DHT22;51349;52.424;10.840;2023-02-12T03:23:47;7.50;99.90
64869;DHT22;51349;52.424;10.840;2023-02-12T03:28:50;7.50;99.90
64869;DHT22;51349;52.424;10.840;2023-02-12T03:34:29;7.50;99.90
64869;DHT22;51349;52.424;10.840;2023-02-12T03:39:59;7.50;99.90
64869;DHT22;51349;52.424;10.840;2023-02-12T03:50:40;7.40;99.90
64869;DHT22;51349;52.424;10.840;2023-02-12T03:55:44;7.50;99.90
64869;DHT22;51349;52.424;10.840;2023-02-12T04:00:47;7.40;99.90
64869;DHT22;51349;52.424;10.840;2023-02-12T04:05:47;7.40;99.90
64869;DHT22;51349;52.424;10.840;2023-02-12T04:16:39;7.40;99.90
64869;DHT22;51349;52.424;10.840;2023-02-12T04:22:10;7.30;99.90
64869;DHT22;51349;52.424;10.840;2023-02-12T04:27:24;7.30;99.90
64869;DHT22;51349;52.424;10.840;2023-02-12T04:32:40;7.20;99.90
64869;DHT22;51349;52.424;10.840;2023-02-12T04:37:53;7.20;99.90
64869;DHT22;51349;52.424;10.840;2023-02-12T04:42:54;7.20;99.90
64869;DHT22;51349;52.424;10.840;2023-02-12T04:47:55;7.20;99.90
64869;DHT22;51349;52.424;10.840;2023-02-12T04:52:56;7.20;99.90
64869;DHT22;51349;52.424;10.840;2023-02-12T04:57:57;7.20;99.90
64869;DHT22;51349;52.424;10.840;2023-02-12T05:02:57;7.20;99.90
64869;DHT22;51349;52.424;10.840;2023-02-12T05:07:58;7.20;99.90
64869;DHT22;51349;52.424;10.840;2023-02-12T05:12:59;7.20;99.90
64869;DHT22;51349;52.424;10.840;2023-02-12T05:17:59;7.20;99.90
64869;DHT22;51349;52.424;10.840;2023-02-12T05:23:03;7.20;99.90
64869;DHT22;51349;52.424;10.840;2023-02-12T05:28:04;7.20;99.90
64869;DHT22;51349;52.424;10.840;2023-02-12T05:33:04;7.10;99.90
64869;DHT22;51349;52.424;10.840;2023-02-12T05:38:05;7.10;99.90
64869;DHT22;51349;52.424;10.840;2023-02-12T05:43:05;7.10;99.90
64869;DHT22;51349;52.424;10.840;2023-02-12T05:48:06;7.00;99.90
64869;DHT22;51349;52.424;10.840;2023-02-12T05:53:07;7.00;99.90
64869;DHT22;51349;52.424;10.840;2023-02-12T05:58:07;7.00;99.90
64869;DHT22;51349;52.424;10.840;2023-02-12T06:03:08;7.00;99.90
64869;DHT22;51349;52.424;10.840;2023-02-12T06:08:09;7.00;99.90
64869;DHT22;51349;52.424;10.840;2023-02-12T06:13:10;7.00;99.90
64869;DHT22;51349;52.424;10.840;2023-02-12T06:18:10;7.00;99.90
64869;DHT22;51349;52.424;10.840;2023-02-12T06:23:11;7.00;99.90
64869;DHT22;51349;52.424;10.840;2023-02-12T06:28:11;7.00;99.90
64869;DHT22;51349;52.424;10.840;2023-02-12T06:33:12;7.00;99.90
64869;DHT22;51349;52.424;10.840;2023-02-12T06:38:13;7.00;99.90
64869;DHT22;51349;52.424;10.840;2023-02-12T06:43:14;6.90;99.90
64869;DHT22;51349;52.424;10.840;2023-02-12T06:48:14;6.90;99.90
64869;DHT22;51349;52.424;10.840;2023-02-12T06:53:15;6.90;99.90
64869;DHT22;51349;52.424;10.840;2023-02-12T06:58:15;6.90;99.90
64869;DHT22;51349;52.424;10.840;2023-02-12T07:03:16;6.90;99.90
64869;DHT22;51349;52.424;10.840;2023-02-12T07:08:17;6.90;99.90
64869;DHT22;51349;52.424;10.840;2023-02-12T07:13:17;6.90;99.90
64869;DHT22;51349;52.424;10.840;2023-02-12T07:18:18;6.90;99.90
64869;DHT22;51349;52.424;10.840;2023-02-12T07:23:18;7.00;99.90
64869;DHT22;51349;52.424;10.840;2023-02-12T07:28:19;7.00;99.90
64869;DHT22;51349;52.424;10.840;2023-02-12T07:33:20;7.00;99.90
64869;DHT22;51349;52.424;10.840;2023-02-12T07:38:20;7.10;99.90
64869;DHT22;51349;52.424;10.840;2023-02-12T07:43:21;7.20;99.90
64869;DHT22;51349;52.424;10.840;2023-02-12T07:48:21;7.20;99.90
64869;DHT22;51349;52.424;10.840;2023-02-12T07:53:22;7.20;99.90
64869;DHT22;51349;52.424;10.840;2023-02-12T07:58:23;7.30;99.90
64869;DHT22;51349;52.424;10.840;2023-02-12T08:03:23;7.30;99.90
64869;DHT22;51349;52.424;10.840;2023-02-12T08:08:24;7.40;99.90
64869;DHT22;51349;52.424;10.840;2023-02-12T08:13:25;7.40;99.90
64869;DHT22;51349;52.424;10.840;2023-02-12T08:18:25;7.40;99.90
64869;DHT22;51349;52.424;10.840;2023-02-12T08:23:26;7.50;99.90
64869;DHT22;51349;52.424;10.840;2023-02-12T08:28:26;7.50;99.90
64869;DHT22;51349;52.424;10.840;2023-02-12T08:33:27;7.50;99.90
64869;DHT22;51349;52.424;10.840;2023-02-12T08:38:28;7.50;99.90
64869;DHT22;51349;52.424;10.840;2023-02-12T08:43:30;7.60;99.90
64869;DHT22;51349;52.424;10.840;2023-02-12T08:48:31;7.60;99.90
64869;DHT22;51349;52.424;10.840;2023-02-12T08:53:32;7.70;99.90
64869;DHT22;51349;52.424;10.840;2023-02-12T08:58:33;7.60;99.90
64869;DHT22;51349;52.424;10.840;2023-02-12T09:03:34;7.70;99.90
64869;DHT22;51349;52.424;10.840;2023-02-12T09:08:36;7.70;99.90
64869;DHT22;51349;52.424;10.840;2023-02-12T09:13:38;7.70;99.90
64869;DHT22;51349;52.424;10.840;2023-02-12T09:18:42;7.70;99.90
64869;DHT22;51349;52.424;10.840;2023-02-12T09:23:44;7.70;99.90
64869;DHT22;51349;52.424;10.840;2023-02-12T09:28:46;7.80;99.90
64869;DHT22;51349;52.424;10.840;2023-02-12T09:33:48;7.90;99.90
64869;DHT22;51349;52.424;10.840;2023-02-12T09:38:49;8.00;99.90
64869;DHT22;51349;52.424;10.840;2023-02-12T09:43:59;7.90;99.90
64869;DHT22;51349;52.424;10.840;2023-02-12T09:49:08;8.00;99.90
64869;DHT22;51349;52.424;10.840;2023-02-12T09:54:15;8.10;99.90
64869;DHT22;51349;52.424;10.840;2023-02-12T09:59:38;8.00;99.90
64869;DHT22;51349;52.424;10.840;2023-02-12T10:04:45;8.00;99.90
64869;DHT22;51349;52.424;10.840;2023-02-12T10:20:31;7.80;99.90
64869;DHT22;51349;52.424;10.840;2023-02-12T10:25:43;7.90;99.90
64869;DHT22;51349;52.424;10.840;2023-02-12T10:30:58;8.00;99.90
64869;DHT22;51349;52.424;10.840;2023-02-12T10:41:16;8.10;99.90
64869;DHT22;51349;52.424;10.840;2023-02-12T10:46:17;8.10;99.90
64869;DHT22;51349;52.424;10.840;2023-02-12T10:51:47;8.10;99.90
64869;DHT22;51349;52.424;10.840;2023-02-12T10:56:49;8.10;99.90
64869;DHT22;51349;52.424;10.840;2023-02-12T11:01:50;8.00;99.90
64869;DHT22;51349;52.424;10.840;2023-02-12T11:07:02;8.10;99.90
64869;DHT22;51349;52.424;10.840;2023-02-12T11:12:30;8.10;99.90
64869;DHT22;51349;52.424;10.840;2023-02-12T11:17:37;7.90;99.90
64869;DHT22;51349;52.424;10.840;2023-02-12T11:22:57;7.90;99.90
64869;DHT22;51349;52.424;10.840;2023-02-12T11:33:24;8.10;99.90
64869;DHT22;51349;52.424;10.840;2023-02-12T11:38:31;8.30;99.90
64869;DHT22;51349;52.424;10.840;2023-02-12T11:43:33;8.30;99.90
64869;DHT22;51349;52.424;10.840;2023-02-12T11:48:43;8.40;99.90
64869;DHT22;51349;52.424;10.840;2023-02-12T11:53:49;8.50;99.90
64869;DHT22;51349;52.424;10.840;2023-02-12T11:58:51;8.40;99.90
64869;DHT22;51349;52.424;10.840;2023-02-12T12:04:09;8.30;99.90
64869;DHT22;51349;52.424;10.840;2023-02-12T12:09:34;8.30;99.90
64869;DHT22;51349;52.424;10.840;2023-02-12T12:14:43;8.20;99.90
64869;DHT22;51349;52.424;10.840;2023-02-12T12:20:10;8.20;99.90
64869;DHT22;51349;52.424;10.840;2023-02-12T12:46:43;8.30;99.90
64869;DHT22;51349;52.424;10.840;2023-02-12T13:13:49;8.20;99.90
64869;DHT22;51349;52.424;10.840;2023-02-12T13:19:30;8.30;99.90
64869;DHT22;51349;52.424;10.840;2023-02-12T13:29:43;8.40;99.90
64869;DHT22;51349;52.424;10.840;2023-02-12T13:34:44;8.30;99.90
64869;DHT22;51349;52.424;10.840;2023-02-12T13:39:47;8.30;99.90
64869;DHT22;51349;52.424;10.840;2023-02-12T13:56:05;8.30;99.90
64869;DHT22;51349;52.424;10.840;2023-02-12T14:01:12;8.30;99.90
64869;DHT22;51349;52.424;10.840;2023-02-12T14:06:19;8.40;99.90
64869;DHT22;51349;52.424;10.840;2023-02-12T14:11:23;8.40;99.90
64869;DHT22;51349;52.424;10.840;2023-02-12T14:26:35;8.40;99.90
64869;DHT22;51349;52.424;10.840;2023-02-12T14:31:38;8.50;99.90
64869;DHT22;51349;52.424;10.840;2023-02-12T14:36:44;8.50;99.90
64869;DHT22;51349;52.424;10.840;2023-02-12T14:41:47;8.50;99.90
64869;DHT22;51349;52.424;10.840;2023-02-12T14:46:53;8.50;99.90
64869;DHT22;51349;52.424;10.840;2023-02-12T14:57:04;8.60;99.90
64869;DHT22;51349;52.424;10.840;2023-02-12T15:02:11;8.60;99.90
64869;DHT22;51349;52.424;10.840;2023-02-12T15:07:19;8.70;99.90
64869;DHT22;51349;52.424;10.840;2023-02-12T15:12:29;8.70;99.90
64869;DHT22;51349;52.424;10.840;2023-02-12T15:17:34;8.60;99.90
64869;DHT22;51349;52.424;10.840;2023-02-12T15:22:41;8.60;99.90
64869;DHT22;51349;52.424;10.840;2023-02-12T15:27:43;8.60;99.90
64869;DHT22;51349;52.424;10.840;2023-02-12T15:32:45;8.60;99.90
64869;DHT22;51349;52.424;10.840;2023-02-12T15:37:46;8.70;99.90
64869;DHT22;51349;52.424;10.840;2023-02-12T15:43:03;8.60;99.90
64869;DHT22;51349;52.424;10.840;2023-02-12T15:48:18;8.60;99.90
64869;DHT22;51349;52.424;10.840;2023-02-12T15:53:19;8.60;99.90
64869;DHT22;51349;52.424;10.840;2023-02-12T15:58:36;8.60;99.90
64869;DHT22;51349;52.424;10.840;2023-02-12T16:03:41;8.60;99.90
64869;DHT22;51349;52.424;10.840;2023-02-12T16:14:06;8.50;99.90
64869;DHT22;51349;52.424;10.840;2023-02-12T16:19:23;8.50;99.90
64869;DHT22;51349;52.424;10.840;2023-02-12T16:24:31;8.40;99.90
64869;DHT22;51349;52.424;10.840;2023-02-12T16:29:35;8.40;99.90
64869;DHT22;51349;52.424;10.840;2023-02-12T16:34:37;8.30;99.90
64869;DHT22;51349;52.424;10.840;2023-02-12T16:50:55;8.10;99.90
64869;DHT22;51349;52.424;10.840;2023-02-12T16:55:57;8.00;99.90
64869;DHT22;51349;52.424;10.840;2023-02-12T17:01:01;8.00;99.90
64869;DHT22;51349;52.424;10.840;2023-02-12T17:06:03;8.00;99.90
64869;DHT22;51349;52.424;10.840;2023-02-12T17:11:04;8.00;99.90
64869;DHT22;51349;52.424;10.840;2023-02-12T17:16:04;8.00;99.90
64869;DHT22;51349;52.424;10.840;2023-02-12T17:21:13;7.90;99.90
64869;DHT22;51349;52.424;10.840;2023-02-12T17:26:14;7.90;99.90
64869;DHT22;51349;52.424;10.840;2023-02-12T17:31:15;7.90;99.90
64869;DHT22;51349;52.424;10.840;2023-02-12T17:36:16;7.80;99.90
64869;DHT22;51349;52.424;10.840;2023-02-12T17:41:17;7.90;99.90
64869;DHT22;51349;52.424;10.840;2023-02-12T17:46:20;7.80;99.90
64869;DHT22;51349;52.424;10.840;2023-02-12T17:51:21;7.80;99.90
64869;DHT22;51349;52.424;10.840;2023-02-12T17:56:22;7.70;99.90
64869;DHT22;51349;52.424;10.840;2023-02-12T18:01:25;7.70;99.90
64869;DHT22;51349;52.424;10.840;2023-02-12T18:06:29;7.80;99.90
64869;DHT22;51349;52.424;10.840;2023-02-12T18:11:30;7.70;99.90
64869;DHT22;51349;52.424;10.840;2023-02-12T18:16:33;7.80;99.90
64869;DHT22;51349;52.424;10.840;2023-02-12T18:21:34;7.70;99.90
64869;DHT22;51349;52.424;10.840;2023-02-12T18:26:34;7.70;99.90
64869;DHT22;51349;52.424;10.840;2023-02-12T18:31:35;7.70;99.90
64869;DHT22;51349;52.424;10.840;2023-02-12T18:36:36;7.70;99.90
64869;DHT22;51349;52.424;10.840;2023-02-12T18:41:36;7.70;99.90
64869;DHT22;51349;52.424;10.840;2023-02-12T18:46:37;7.60;99.90
64869;DHT22;51349;52.424;10.840;2023-02-12T18:51:38;7.60;99.90
64869;DHT22;51349;52.424;10.840;2023-02-12T18:56:42;7.60;99.90
64869;DHT22;51349;52.424;10.840;2023-02-12T19:01:43;7.60;99.90
64869;DHT22;51349;52.424;10.840;2023-02-12T19:06:51;7.50;99.90
64869;DHT22;51349;52.424;10.840;2023-02-12T19:11:54;7.60;99.90
64869;DHT22;51349;52.424;10.840;2023-02-12T19:16:55;7.50;99.90
64869;DHT22;51349;52.424;10.840;2023-02-12T19:21:56;7.50;99.90
64869;DHT22;51349;52.424;10.840;2023-02-12T19:26:56;7.50;99.90
64869;DHT22;51349;52.424;10.840;2023-02-12T19:32:00;7.50;99.90
64869;DHT22;51349;52.424;10.840;2023-02-12T19:37:01;7.50;99.90
64869;DHT22;51349;52.424;10.840;2023-02-12T19:42:01;7.50;99.90
64869;DHT22;51349;52.424;10.840;2023-02-12T19:47:02;7.50;99.90
64869;DHT22;51349;52.424;10.840;2023-02-12T19:52:03;7.40;99.90
64869;DHT22;51349;52.424;10.840;2023-02-12T19:57:04;7.40;99.90
64869;DHT22;51349;52.424;10.840;2023-02-12T20:02:09;7.40;99.90
64869;DHT22;51349;52.424;10.840;2023-02-12T20:07:09;7.30;99.90
64869;DHT22;51349;52.424;10.840;2023-02-12T20:12:10;7.30;99.90
64869;DHT22;51349;52.424;10.840;2023-02-12T20:17:11;7.30;99.90
64869;DHT22;51349;52.424;10.840;2023-02-12T20:22:11;7.30;99.90
64869;DHT22;51349;52.424;10.840;2023-02-12T20:27:13;7.30;99.90
64869;DHT22;51349;52.424;10.840;2023-02-12T20:32:14;7.30;99.90
64869;DHT22;51349;52.424;10.840;2023-02-12T20:37:14;7.30;99.90
64869;DHT22;51349;52.424;10.840;2023-02-12T20:42:17;7.30;99.90
64869;DHT22;51349;52.424;10.840;2023-02-12T20:47:18;7.30;99.90
64869;DHT22;51349;52.424;10.840;2023-02-12T20:52:18;7.30;99.90
64869;DHT22;51349;52.424;10.840;2023-02-12T20:57:20;7.30;99.90
64869;DHT22;51349;52.424;10.840;2023-02-12T21:02:20;7.30;99.90
64869;DHT22;51349;52.424;10.840;2023-02-12T21:07:21;7.30;99.90
64869;DHT22;51349;52.424;10.840;2023-02-12T21:12:22;7.30;99.90
64869;DHT22;51349;52.424;10.840;2023-02-12T21:17:23;7.20;99.90
64869;DHT22;51349;52.424;10.840;2023-02-12T21:22:24;7.20;99.90
64869;DHT22;51349;52.424;10.840;2023-02-12T21:27:25;7.20;99.90
64869;DHT22;51349;52.424;10.840;2023-02-12T21:32:25;7.20;99.90
64869;DHT22;51349;52.424;10.840;2023-02-12T21:37:26;7.20;99.90
64869;DHT22;51349;52.424;10.840;2023-02-12T21:42:27;7.10;99.90
64869;DHT22;51349;52.424;10.840;2023-02-12T21:47:27;7.10;99.90
64869;DHT22;51349;52.424;10.840;2023-02-12T21:52:28;7.10;99.90
64869;DHT22;51349;52.424;10.840;2023-02-12T21:57:28;7.00;99.90
64869;DHT22;51349;52.424;10.840;2023-02-12T22:02:30;7.10;99.90
64869;DHT22;51349;52.424;10.840;2023-02-12T22:07:30;7.00;99.90
64869;DHT22;51349;52.424;10.840;2023-02-12T22:12:33;7.00;99.90
64869;DHT22;51349;52.424;10.840;2023-02-12T22:17:34;7.00;99.90
64869;DHT22;51349;52.424;10.840;2023-02-12T22:22:34;7.00;99.90
64869;DHT22;51349;52.424;10.840;2023-02-12T22:27:35;7.00;99.90
64869;DHT22;51349;52.424;10.840;2023-02-12T22:32:36;7.00;99.90
64869;DHT22;51349;52.424;10.840;2023-02-12T22:37:39;7.00;99.90
64869;DHT22;51349;52.424;10.840;2023-02-12T22:42:40;6.90;99.90
64869;DHT22;51349;52.424;10.840;2023-02-12T22:47:41;6.90;99.90
64869;DHT22;51349;52.424;10.840;2023-02-12T22:52:42;6.90;99.90
64869;DHT22;51349;52.424;10.840;2023-02-12T22:57:42;6.90;99.90
64869;DHT22;51349;52.424;10.840;2023-02-12T23:02:43;6.90;99.90
64869;DHT22;51349;52.424;10.840;2023-02-12T23:07:43;6.90;99.90
64869;DHT22;51349;52.424;10.840;2023-02-12T23:12:44;6.90;99.90
64869;DHT22;51349;52.424;10.840;2023-02-12T23:17:45;6.90;99.90
64869;DHT22;51349;52.424;10.840;2023-02-12T23:22:45;6.90;99.90
64869;DHT22;51349;52.424;10.840;2023-02-12T23:27:46;6.90;99.90
64869;DHT22;51349;52.424;10.840;2023-02-12T23:32:46;6.80;99.90
64869;DHT22;51349;52.424;10.840;2023-02-12T23:37:47;6.90;99.90
64869;DHT22;51349;52.424;10.840;2023-02-12T23:42:48;6.80;99.90
64869;DHT22;51349;52.424;10.840;2023-02-12T23:47:49;6.90;99.90
64869;DHT22;51349;52.424;10.840;2023-02-12T23:52:50;6.80;99.90
64869;DHT22;51349;52.424;10.840;2023-02-12T23:57:50;6.80;99.90
